Cercs-Sant Jordi





Hora UTC 07:30
Temperatura 0.5 ºC
Humitat 89.6 %
Pressió hPa
Pluja 0.0 mm
Velocitat vent 8.4 km/h
Direcció vent NW
Radiació solar 23.4 W/m²

Dades diàries 2019-11-15



Hora UTC (hivern +1h; estiu +2h)
Temperatura (ºC) Humitat (%) Velocitat vent (km/h) Precipitació (mm) Radiació solar (W/m²)
Hora UTC Aire Humitat Vel. Dir. Vel. Max Dir. Intent. màx 5 min. Rad. Sol.
00:05 1.3 94.2 4.7 W 4.7 W 0.0 0.1
00:10 1.3 94.1 4.0 WNW 6.1 WNW 0.0 0.1
00:15 1.3 93.7 4.0 SW 8.8 SW 0.0 0.2
00:20 0.9 94.2 1.4 WSW 6.1 SW 0.0 0.1
00:25 0.8 95.1 0.0 NW 3.4 NNW 0.0 0.1
00:30 0.8 95.8 0.5 NW 3.4 NW 0.0 0.1
00:35 0.9 96.2 0.0 NNE 0.0 NNW 0.0 0.2
00:40 0.8 95.9 0.0 NNE 0.0 SSE 0.0 0.2
00:45 0.7 96.1 0.0 NNE 0.0 SSE 0.0 0.2
00:50 0.7 96.5 0.0 NNE 0.0 SSE 0.0 0.2
00:55 0.8 97.0 0.0 NNE 0.0 ENE 0.0 0.2
01:00 0.7 97.0 0.0 NNE 0.0 ENE 0.0 0.1
01:05 0.6 96.9 0.0 NNE 0.0 ENE 0.0 0.2
01:10 0.4 96.7 0.0 NNE 0.0 SW 0.0 0.2
01:15 0.5 97.3 0.8 W 3.4 W 0.0 0.2
01:20 0.5 97.5 1.2 W 3.4 W 0.0 0.2
01:25 0.6 97.7 1.3 S 6.1 SSE 0.0 0.1
01:30 0.5 97.2 1.1 WSW 6.1 WSW 0.0 0.1
01:35 0.6 97.4 0.0 NNE 0.0 WNW 0.0 0.1
01:40 0.8 97.4 0.0 NNE 0.0 WNW 0.0 0.2
01:45 1.0 97.2 0.1 SSE 3.4 SSE 0.0 0.2
01:50 0.9 96.5 0.8 S 6.1 S 0.0 0.2
01:55 0.9 96.2 0.0 NNE 0.0 SW 0.0 0.1
02:00 1.0 96.5 0.7 ENE 3.4 NE 0.0 0.1
02:05 1.1 96.4 1.7 NE 6.1 ENE 0.0 0.1
02:10 1.2 95.4 1.5 NNE 6.1 NE 0.0 0.1
02:15 1.2 95.3 0.4 ENE 6.1 ENE 0.0 0.1
02:20 1.2 95.4 1.4 WSW 6.1 WSW 0.0 0.1
02:25 1.2 95.9 2.7 WNW 6.1 NW 0.0 0.2
02:30 1.2 96.1 1.7 NE 6.1 ENE 0.0 0.2
02:35 1.4 94.1 1.7 NNW 8.8 NE 0.0 0.2
02:40 1.5 92.8 1.5 NNW 6.1 NNE 0.0 0.1
02:45 1.4 93.1 0.5 WNW 3.4 WSW 0.0 0.2
02:50 1.3 93.7 2.9 NNW 8.8 NNW 0.0 0.1
02:55 1.4 92.8 2.7 NNW 8.8 WNW 0.0 0.1
03:00 1.4 91.5 3.9 N 11.5 NNE 0.0 0.1
03:05 1.4 91.1 4.0 N 14.2 N 0.0 0.2
03:10 1.4 90.1 2.3 NNW 8.8 NNE 0.0 0.1
03:15 1.3 91.5 4.6 N 11.5 NNW 0.0 0.1
03:20 1.4 91.2 5.2 N 11.5 N 0.0 0.1
03:25 1.4 91.1 5.4 NNW 11.5 NW 0.0 0.1
03:30 1.5 89.4 6.3 N 16.9 NNW 0.0 0.1
03:35 1.5 88.7 5.7 NNW 14.2 N 0.0 0.1
03:40 1.6 89.0 4.0 NNW 11.5 NNE 0.0 0.1
03:45 1.4 89.8 4.8 NW 11.5 WNW 0.0 0.1
03:50 1.4 89.3 8.3 WNW 14.2 WNW 0.0 0.1
03:55 1.3 89.2 4.2 WNW 11.5 WNW 0.0 0.2
04:00 1.3 89.2 1.4 N 8.8 NW 0.0 0.1
04:05 1.0 90.6 0.3 WNW 3.4 W 0.0 0.2
04:10 0.7 92.2 0.0 NNE 0.0 NNW 0.0 0.1
04:15 0.6 92.8 1.2 NE 6.1 ENE 0.0 0.1
04:20 0.8 91.0 3.1 NNW 11.5 NW 0.0 0.1
04:25 1.0 89.3 6.5 NW 16.9 NW 0.0 0.1
04:30 1.1 88.3 5.5 NW 11.5 NW 0.0 0.1
04:35 1.0 89.0 4.6 WNW 14.2 NW 0.0 0.1
04:40 0.9 88.8 4.2 NW 11.5 N 0.0 0.1
04:45 0.9 88.5 3.9 NW 8.8 NNW 0.0 0.2
04:50 0.8 89.1 2.8 NNW 8.8 NW 0.0 0.2
04:55 0.9 88.9 2.0 N 8.8 N 0.0 0.2
05:00 0.6 90.1 1.1 WNW 6.1 WNW 0.0 0.1
05:05 0.4 91.4 1.3 WNW 6.1 W 0.0 0.1
05:10 0.4 91.7 0.7 WSW 6.1 W 0.0 0.2
05:15 0.2 92.5 0.6 WNW 3.4 WNW 0.0 0.1
05:20 0.2 92.9 0.0 NNE 0.0 NNE 0.0 0.2
05:25 0.2 92.6 0.0 ENE 3.4 ENE 0.0 0.1
05:30 0.2 92.7 2.9 NW 8.8 NNE 0.0 0.1
05:35 0.3 91.6 1.5 NNW 8.8 N 0.0 0.2
05:40 0.3 91.9 0.0 NNE 0.0 NW 0.0 0.2
05:45 0.1 92.4 0.1 NE 3.4 NE 0.0 0.1
05:50 0.0 93.5 0.3 NW 6.1 NNE 0.0 0.1
05:55 0.1 92.9 0.6 NNW 8.8 NNE 0.0 0.1
06:00 0.0 92.2 0.8 W 6.1 SW 0.0 0.1
06:05 0.1 92.2 2.8 NNW 8.8 NNW 0.0 0.1
06:10 0.3 91.2 4.9 NW 11.5 NW 0.0 0.1
06:15 0.2 90.8 3.8 WNW 11.5 NW 0.0 0.1
06:20 0.3 90.5 4.4 WNW 8.8 WNW 0.0 0.2
06:25 0.3 90.0 4.6 W 11.5 NW 0.0 0.3
06:30 0.2 90.5 0.2 WNW 3.4 WNW 0.0 0.5
06:35 0.0 91.6 1.6 NW 11.5 WNW 0.0 1.1
06:40 0.1 91.9 2.4 NW 8.8 WNW 0.0 2.3
06:45 -0.1 91.2 1.2 SSW 6.1 S 0.0 3.9
06:50 -0.3 92.6 0.0 NNE 0.0 WSW 0.0 5.9
06:55 -0.3 93.2 0.0 NNE 0.0 WSW 0.0 8.1
07:00 -0.1 92.9 0.2 WNW 3.4 W 0.0 10.1
07:05 -0.3 92.7 1.9 NW 8.8 WNW 0.0 12.2
07:10 -0.1 92.2 4.4 WNW 11.5 WNW 0.0 14.3
07:15 0.1 91.7 2.8 NNW 11.5 NNE 0.0 16.4
07:20 0.4 90.0 4.5 NW 16.9 N 0.0 18.6
07:25 0.3 89.9 6.1 NW 11.5 NNW 0.0 20.9
07:30 0.5 89.6 8.4 NW 14.2 NNW 0.0 23.4
Màxima 1.6 97.7 8.4 NW 16.9 N 0.0 23.4
Mínima -0.4 88.3
Total 0.0